Time;durP1;ratioP1;P1;durP2;ratioP2;P2;SDS_P1;SDS_P2;PMS_P1;PMS_P2;Temp;Humidity;BMP_temperature;BMP_pressure;BME280_temperature;BME280_humidity;BME280_pressure;Samples;Min_cycle;Max_cycle;Signal;HPM_P1;HPM_P2
2023/03/05 00:03:15;;;;;;;8.40;6.72;;;;;;;;;;10408707;28;20512;-59
2023/03/05 00:08:16;;;;;;;11.45;7.47;;;;;;;;;;10408845;28;20029;-58
2023/03/05 00:13:16;;;;;;;9.93;7.28;;;;;;;;;;10408751;28;20021;-58
2023/03/05 00:18:17;;;;;;;8.88;7.30;;;;;;;;;;10409111;28;20268;-58
2023/03/05 00:23:18;;;;;;;10.57;7.45;;;;;;;;;;10408490;28;20026;-58
2023/03/05 00:28:19;;;;;;;9.43;7.30;;;;;;;;;;10408233;28;20045;-58
2023/03/05 00:33:19;;;;;;;9.73;7.90;;;;;;;;;;10408442;28;20033;-58
2023/03/05 00:38:20;;;;;;;9.95;8.02;;;;;;;;;;10408858;28;20045;-58
2023/03/05 00:43:20;;;;;;;8.77;7.28;;;;;;;;;;10408167;28;20044;-58
2023/03/05 00:48:24;;;;;;;8.30;7.20;;;;;;;;;;10408066;28;20026;-57
2023/03/05 00:53:25;;;;;;;11.38;7.22;;;;;;;;;;10408012;28;20461;-58
2023/03/05 00:58:26;;;;;;;9.45;7.18;;;;;;;;;;10407906;28;20024;-58
2023/03/05 01:03:27;;;;;;;10.50;7.70;;;;;;;;;;10408194;28;20075;-58
2023/03/05 01:08:28;;;;;;;11.05;8.05;;;;;;;;;;10408687;28;20034;-58
2023/03/05 01:13:29;;;;;;;10.43;7.88;;;;;;;;;;10407649;28;20432;-58
2023/03/05 01:18:29;;;;;;;8.90;7.30;;;;;;;;;;10413654;28;20124;-57
2023/03/05 01:23:30;;;;;;;12.23;7.78;;;;;;;;;;10415703;28;20044;-58
2023/03/05 01:28:31;;;;;;;9.82;7.32;;;;;;;;;;10414992;28;20045;-58
2023/03/05 01:33:32;;;;;;;14.93;7.43;;;;;;;;;;10415488;28;20057;-58
2023/03/05 01:38:32;;;;;;;9.35;7.60;;;;;;;;;;10415824;28;20033;-58
2023/03/05 01:43:33;;;;;;;9.32;7.75;;;;;;;;;;10414415;28;20025;-58
2023/03/05 01:48:33;;;;;;;9.02;7.25;;;;;;;;;;10414656;28;20420;-58
2023/03/05 01:53:34;;;;;;;10.93;7.28;;;;;;;;;;10413053;28;20369;-57
2023/03/05 01:58:38;;;;;;;9.13;7.25;;;;;;;;;;10414463;28;20037;-58
2023/03/05 02:03:40;;;;;;;11.02;7.70;;;;;;;;;;10414276;28;20022;-57
2023/03/05 02:08:40;;;;;;;9.68;7.47;;;;;;;;;;10412323;28;20025;-58
2023/03/05 02:13:41;;;;;;;10.45;7.38;;;;;;;;;;10413448;28;20048;-59
2023/03/05 02:18:42;;;;;;;10.90;8.05;;;;;;;;;;10412513;28;20052;-58
2023/03/05 02:23:42;;;;;;;10.50;7.35;;;;;;;;;;10413514;28;20076;-58
2023/03/05 02:28:52;;;;;;;10.10;7.70;;;;;;;;;;10411384;28;20041;-58
2023/03/05 02:33:54;;;;;;;13.52;7.80;;;;;;;;;;10410992;28;20116;-58
2023/03/05 02:38:56;;;;;;;12.73;7.68;;;;;;;;;;10412113;28;20034;-58
2023/03/05 02:43:56;;;;;;;10.57;7.78;;;;;;;;;;10412577;28;20033;-58
2023/03/05 02:48:57;;;;;;;11.40;7.85;;;;;;;;;;10411759;28;20022;-57
2023/03/05 02:53:57;;;;;;;11.18;7.50;;;;;;;;;;10411939;28;20038;-57
2023/03/05 02:58:58;;;;;;;9.13;7.22;;;;;;;;;;10411605;28;20037;-58
2023/03/05 03:03:59;;;;;;;10.25;7.38;;;;;;;;;;10411434;28;20033;-58
2023/03/05 03:08:59;;;;;;;9.05;7.20;;;;;;;;;;10411071;28;20100;-58
2023/03/05 03:14:00;;;;;;;9.77;7.88;;;;;;;;;;10411118;28;20025;-58
2023/03/05 03:19:00;;;;;;;10.98;7.38;;;;;;;;;;10410823;28;20179;-58
2023/03/05 03:24:01;;;;;;;10.00;7.57;;;;;;;;;;10410634;28;20044;-58
2023/03/05 03:29:01;;;;;;;14.88;8.00;;;;;;;;;;10410336;28;20054;-58
2023/03/05 03:34:02;;;;;;;10.30;7.80;;;;;;;;;;10410028;28;20029;-58
2023/03/05 03:39:04;;;;;;;9.55;7.43;;;;;;;;;;10409698;28;20025;-58
2023/03/05 03:44:07;;;;;;;11.02;8.40;;;;;;;;;;10409836;28;20496;-58
2023/03/05 03:49:19;;;;;;;10.50;7.45;;;;;;;;;;10409562;28;20346;-58
2023/03/05 03:54:20;;;;;;;11.43;8.23;;;;;;;;;;10409607;28;20100;-58
2023/03/05 03:59:21;;;;;;;9.68;7.47;;;;;;;;;;10409360;28;20029;-58
2023/03/05 04:04:22;;;;;;;9.90;7.95;;;;;;;;;;10409170;28;20025;-58
2023/03/05 04:09:22;;;;;;;10.85;8.30;;;;;;;;;;10409516;28;20385;-58
2023/03/05 04:14:25;;;;;;;10.52;7.68;;;;;;;;;;10409402;28;20041;-58
2023/03/05 04:19:27;;;;;;;10.93;8.23;;;;;;;;;;10408782;28;20032;-58
2023/03/05 04:24:27;;;;;;;9.13;7.35;;;;;;;;;;10409102;28;20029;-58
2023/03/05 04:29:28;;;;;;;11.02;8.02;;;;;;;;;;10408386;28;20052;-57
2023/03/05 04:34:29;;;;;;;12.23;8.32;;;;;;;;;;10408461;28;20052;-58
2023/03/05 04:39:29;;;;;;;11.13;8.68;;;;;;;;;;10408331;28;20033;-58
2023/03/05 04:44:30;;;;;;;11.70;7.95;;;;;;;;;;10408910;28;20021;-58
2023/03/05 04:49:30;;;;;;;12.23;8.52;;;;;;;;;;10408153;28;20472;-58
2023/03/05 04:54:31;;;;;;;11.10;8.40;;;;;;;;;;10416315;28;20473;-58
2023/03/05 04:59:32;;;;;;;10.52;7.82;;;;;;;;;;10416695;28;20471;-58
2023/03/05 05:04:34;;;;;;;9.73;8.10;;;;;;;;;;10416073;28;20451;-58
2023/03/05 05:09:35;;;;;;;11.82;8.20;;;;;;;;;;10415842;28;20056;-58
2023/03/05 05:14:36;;;;;;;10.55;8.40;;;;;;;;;;10416110;28;20029;-58
2023/03/05 05:19:36;;;;;;;10.63;8.45;;;;;;;;;;10415473;28;20034;-58
2023/03/05 05:24:37;;;;;;;11.80;8.25;;;;;;;;;;10414027;28;20021;-58
2023/03/05 05:29:38;;;;;;;10.73;8.30;;;;;;;;;;10415183;28;20049;-58
2023/03/05 05:34:38;;;;;;;10.88;8.23;;;;;;;;;;10414858;28;20420;-59
2023/03/05 05:39:39;;;;;;;13.48;8.43;;;;;;;;;;10415008;28;20022;-59
2023/03/05 05:44:40;;;;;;;10.80;8.63;;;;;;;;;;10414953;28;20057;-58
2023/03/05 05:49:40;;;;;;;11.13;8.45;;;;;;;;;;10415345;28;20033;-58
2023/03/05 05:54:42;;;;;;;9.35;7.70;;;;;;;;;;10414217;28;20587;-58
2023/03/05 05:59:43;;;;;;;12.30;8.70;;;;;;;;;;10414386;28;20044;-58
2023/03/05 06:04:43;;;;;;;11.00;8.70;;;;;;;;;;10413207;28;20445;-58
2023/03/05 06:09:44;;;;;;;11.02;8.07;;;;;;;;;;10413437;28;20477;-57
2023/03/05 06:14:44;;;;;;;10.35;8.63;;;;;;;;;;10413788;28;20040;-58
2023/03/05 06:19:45;;;;;;;12.52;8.60;;;;;;;;;;10413195;28;20175;-58
2023/03/05 06:24:45;;;;;;;12.45;8.43;;;;;;;;;;10413489;28;20477;-58
2023/03/05 06:29:46;;;;;;;11.85;8.50;;;;;;;;;;10412494;28;20064;-59
2023/03/05 06:34:47;;;;;;;10.38;8.23;;;;;;;;;;10412551;28;20025;-58
2023/03/05 06:39:47;;;;;;;11.18;8.23;;;;;;;;;;10412418;28;20067;-58
2023/03/05 06:44:48;;;;;;;10.60;7.53;;;;;;;;;;10412091;28;20095;-58
2023/03/05 06:49:48;;;;;;;10.70;8.15;;;;;;;;;;10411780;28;20033;-58
2023/03/05 06:54:49;;;;;;;10.30;8.40;;;;;;;;;;10411832;28;20025;-58
2023/03/05 06:59:50;;;;;;;10.18;8.50;;;;;;;;;;10412223;28;20083;-58
2023/03/05 07:04:50;;;;;;;13.48;9.02;;;;;;;;;;10411691;28;20361;-58
2023/03/05 07:09:52;;;;;;;9.45;7.43;;;;;;;;;;10411757;28;20040;-59
2023/03/05 07:14:53;;;;;;;11.85;7.95;;;;;;;;;;10410664;28;20053;-58
2023/03/05 07:19:53;;;;;;;8.85;7.55;;;;;;;;;;10411173;28;20037;-58
2023/03/05 07:24:54;;;;;;;10.52;8.60;;;;;;;;;;10410736;28;20493;-58
2023/03/05 07:29:54;;;;;;;12.90;8.60;;;;;;;;;;10410589;28;20053;-60
2023/03/05 07:34:55;;;;;;;10.25;8.55;;;;;;;;;;10410661;28;20358;-58
2023/03/05 07:39:56;;;;;;;11.63;8.15;;;;;;;;;;10410063;28;20380;-58
2023/03/05 07:44:56;;;;;;;10.07;8.10;;;;;;;;;;10409795;28;20461;-58
2023/03/05 07:49:57;;;;;;;10.75;8.63;;;;;;;;;;10410082;28;20040;-58
2023/03/05 07:54:57;;;;;;;9.70;8.18;;;;;;;;;;10410010;28;20026;-58
2023/03/05 07:59:58;;;;;;;13.18;8.63;;;;;;;;;;10409545;28;20021;-58
2023/03/05 08:04:59;;;;;;;12.90;8.20;;;;;;;;;;10409143;28;20034;-58
2023/03/05 08:09:59;;;;;;;10.70;8.10;;;;;;;;;;10408950;28;20040;-58
2023/03/05 08:15:00;;;;;;;11.30;8.80;;;;;;;;;;10408857;28;20017;-58
2023/03/05 08:20:04;;;;;;;9.95;8.00;;;;;;;;;;10409698;28;20033;-58
2023/03/05 08:25:06;;;;;;;11.80;8.43;;;;;;;;;;10409406;28;20044;-58
2023/03/05 08:30:15;;;;;;;10.00;7.75;;;;;;;;;;10408359;28;20057;-58
2023/03/05 08:35:15;;;;;;;10.35;7.82;;;;;;;;;;10408737;28;20040;-58
2023/03/05 08:40:16;;;;;;;9.02;7.45;;;;;;;;;;10408337;28;20465;-58
2023/03/05 08:45:17;;;;;;;11.45;8.00;;;;;;;;;;10409115;28;20044;-58
2023/03/05 08:50:18;;;;;;;9.57;7.15;;;;;;;;;;10408036;28;20354;-58
2023/03/05 08:55:18;;;;;;;9.75;8.10;;;;;;;;;;10408714;28;20018;-58
2023/03/05 09:00:19;;;;;;;11.30;7.85;;;;;;;;;;10408151;28;20022;-58
2023/03/05 09:05:20;;;;;;;12.38;7.00;;;;;;;;;;10408397;28;20026;-58
2023/03/05 09:10:20;;;;;;;10.32;7.22;;;;;;;;;;10407802;28;20028;-58
2023/03/05 09:15:21;;;;;;;10.93;8.23;;;;;;;;;;10407639;28;20499;-58
2023/03/05 09:20:22;;;;;;;10.18;7.43;;;;;;;;;;10407618;28;20025;-58
2023/03/05 09:25:22;;;;;;;10.55;7.82;;;;;;;;;;10407481;28;20052;-58
2023/03/05 09:30:23;;;;;;;9.00;6.57;;;;;;;;;;10407409;28;20053;-58
2023/03/05 09:35:23;;;;;;;10.02;6.97;;;;;;;;;;10407199;28;20640;-58
2023/03/05 09:40:26;;;;;;;10.07;7.28;;;;;;;;;;10415009;28;20026;-58
2023/03/05 09:45:36;;;;;;;10.40;7.68;;;;;;;;;;10414896;28;20029;-58
2023/03/05 09:50:41;;;;;;;7.75;6.28;;;;;;;;;;10413663;28;20037;-58
2023/03/05 09:55:48;;;;;;;8.57;6.53;;;;;;;;;;10413447;28;20075;-58
2023/03/05 10:00:54;;;;;;;8.95;7.10;;;;;;;;;;10412733;28;20388;-58
2023/03/05 10:06:02;;;;;;;9.55;7.07;;;;;;;;;;10414128;28;20075;-58
2023/03/05 10:11:09;;;;;;;9.32;6.88;;;;;;;;;;10413983;28;20305;-58
2023/03/05 10:16:41;;;;;;;9.07;6.90;;;;;;;;;;10413393;28;20397;-58
2023/03/05 10:22:10;;;;;;;9.38;6.90;;;;;;;;;;10411991;28;20374;-58
2023/03/05 10:28:04;;;;;;;9.38;7.25;;;;;;;;;;10413095;28;20013;-58
2023/03/05 10:33:48;;;;;;;10.02;6.95;;;;;;;;;;10412119;28;20135;-58
2023/03/05 10:39:30;;;;;;;9.90;7.15;;;;;;;;;;10381449;28;20037;-58
2023/03/05 10:44:51;;;;;;;8.98;6.75;;;;;;;;;;10412316;28;20034;-58
2023/03/05 10:49:56;;;;;;;10.45;7.18;;;;;;;;;;10411741;28;20544;-58
2023/03/05 10:54:56;;;;;;;8.57;6.40;;;;;;;;;;10411887;28;20104;-58
2023/03/05 11:00:05;;;;;;;9.73;7.00;;;;;;;;;;10412938;28;20171;-58
2023/03/05 11:05:42;;;;;;;9.13;6.65;;;;;;;;;;10410700;28;20018;-58
2023/03/05 11:10:43;;;;;;;9.07;6.78;;;;;;;;;;10411173;28;20472;-58
2023/03/05 11:15:56;;;;;;;8.02;6.22;;;;;;;;;;10411101;28;20034;-58
2023/03/05 11:21:18;;;;;;;9.63;7.05;;;;;;;;;;10410860;28;20025;-58
2023/03/05 11:26:21;;;;;;;9.20;6.15;;;;;;;;;;10409628;28;20030;-58
2023/03/05 11:31:27;;;;;;;8.02;5.95;;;;;;;;;;10409154;28;20049;-58
2023/03/05 11:36:38;;;;;;;9.50;6.60;;;;;;;;;;10410176;28;20032;-58
2023/03/05 11:41:52;;;;;;;7.65;6.20;;;;;;;;;;10410617;28;20044;-58
2023/03/05 11:47:10;;;;;;;6.78;5.55;;;;;;;;;;10410071;28;20056;-58
2023/03/05 11:52:22;;;;;;;7.53;6.23;;;;;;;;;;10408642;28;20025;-58
2023/03/05 11:57:25;;;;;;;6.88;5.90;;;;;;;;;;10408404;28;20036;-58
2023/03/05 12:02:27;;;;;;;7.70;6.20;;;;;;;;;;10408277;28;20029;-58
2023/03/05 12:07:40;;;;;;;7.85;6.70;;;;;;;;;;10408319;28;20100;-58
2023/03/05 12:13:19;;;;;;;7.50;5.95;;;;;;;;;;10408312;28;20083;-58
2023/03/05 12:18:40;;;;;;;;;;;;;;;;;;10409508;28;20500;-58
2023/03/05 12:23:45;;;;;;;8.32;6.32;;;;;;;;;;10409184;28;19919;-58
2023/03/05 12:28:48;;;;;;;9.63;6.53;;;;;;;;;;10408879;28;20137;-58
2023/03/05 12:33:48;;;;;;;7.93;6.05;;;;;;;;;;10408410;28;20495;-58
2023/03/05 12:38:58;;;;;;;8.75;6.35;;;;;;;;;;10408398;28;20028;-58
2023/03/05 12:44:05;;;;;;;9.82;6.40;;;;;;;;;;10407183;28;20048;-58
2023/03/05 12:49:17;;;;;;;7.18;5.97;;;;;;;;;;10408333;28;20034;-58
2023/03/05 12:54:34;;;;;;;8.00;5.90;;;;;;;;;;10408100;28;20099;-58
2023/03/05 12:59:47;;;;;;;7.00;4.88;;;;;;;;;;10408206;28;20079;-58
2023/03/05 13:04:51;;;;;;;7.93;6.07;;;;;;;;;;10407299;28;20033;-58
2023/03/05 13:09:59;;;;;;;7.55;5.60;;;;;;;;;;10406746;28;20037;-58
2023/03/05 13:15:13;;;;;;;8.90;6.30;;;;;;;;;;10415991;28;20048;-58
2023/03/05 13:20:28;;;;;;;8.10;5.82;;;;;;;;;;10414983;28;20033;-58
2023/03/05 13:25:29;;;;;;;8.02;5.75;;;;;;;;;;10415873;28;20025;-58
2023/03/05 13:30:29;;;;;;;7.95;6.15;;;;;;;;;;10414934;28;20095;-58
2023/03/05 13:35:31;;;;;;;9.10;6.32;;;;;;;;;;10414930;28;20033;-58
2023/03/05 13:40:32;;;;;;;10.63;6.47;;;;;;;;;;10414263;28;20037;-58
2023/03/05 13:45:32;;;;;;;7.88;5.82;;;;;;;;;;10414984;28;20029;-58
2023/03/05 13:50:39;;;;;;;6.38;5.43;;;;;;;;;;10414413;28;20033;-58
2023/03/05 13:55:40;;;;;;;8.02;6.07;;;;;;;;;;10414164;28;20033;-58
2023/03/05 14:00:41;;;;;;;8.43;6.32;;;;;;;;;;10414548;28;20032;-58
2023/03/05 14:05:44;;;;;;;7.07;5.85;;;;;;;;;;10414275;28;20464;-58
2023/03/05 14:10:45;;;;;;;7.60;6.13;;;;;;;;;;10414194;28;20037;-58
2023/03/05 14:16:26;;;;;;;8.30;6.05;;;;;;;;;;10413560;28;20478;-58
2023/03/05 14:21:49;;;;;;;7.32;5.82;;;;;;;;;;10414020;28;20038;-58
2023/03/05 14:26:52;;;;;;;8.00;6.38;;;;;;;;;;10413051;28;20052;-58
2023/03/05 14:32:06;;;;;;;6.97;5.68;;;;;;;;;;10412527;28;20077;-58
2023/03/05 14:37:20;;;;;;;6.53;5.70;;;;;;;;;;10412951;28;20403;-63
2023/03/05 14:42:52;;;;;;;8.40;6.07;;;;;;;;;;10411098;28;20025;-63
2023/03/05 14:47:55;;;;;;;7.97;6.32;;;;;;;;;;10411414;28;20025;-62
2023/03/05 14:53:01;;;;;;;8.20;5.65;;;;;;;;;;10411895;28;20037;-62
2023/03/05 14:58:10;;;;;;;7.70;6.18;;;;;;;;;;10412410;28;20062;-63
2023/03/05 15:03:13;;;;;;;6.78;5.78;;;;;;;;;;10410515;28;20037;-62
2023/03/05 15:08:25;;;;;;;8.45;6.35;;;;;;;;;;10410229;28;20488;-63
2023/03/05 15:13:26;;;;;;;7.57;5.95;;;;;;;;;;10411152;28;20459;-63
2023/03/05 15:18:27;;;;;;;6.75;5.55;;;;;;;;;;10411546;28;20108;-63
2023/03/05 15:23:34;;;;;;;7.43;5.63;;;;;;;;;;10410837;28;20492;-63
2023/03/05 15:28:37;;;;;;;8.95;5.82;;;;;;;;;;10410334;28;20469;-63
2023/03/05 15:33:40;;;;;;;7.25;6.05;;;;;;;;;;10409649;28;20021;-62
2023/03/05 15:38:41;;;;;;;6.97;5.88;;;;;;;;;;10410303;28;20240;-62
2023/03/05 15:43:42;;;;;;;6.10;5.50;;;;;;;;;;10410433;28;20041;-63
2023/03/05 15:48:48;;;;;;;5.88;5.28;;;;;;;;;;10409879;28;20040;-62
2023/03/05 15:53:49;;;;;;;6.80;5.78;;;;;;;;;;10409651;28;20443;-62
2023/03/05 15:58:50;;;;;;;6.32;5.57;;;;;;;;;;10410010;28;20067;-63
2023/03/05 16:03:51;;;;;;;6.43;5.40;;;;;;;;;;10409306;28;20025;-63
2023/03/05 16:09:03;;;;;;;7.18;5.55;;;;;;;;;;10409220;28;20508;-60
2023/03/05 16:14:07;;;;;;;7.38;5.30;;;;;;;;;;10407794;28;20500;-63
2023/03/05 16:19:10;;;;;;;8.00;5.75;;;;;;;;;;10409451;28;20029;-62
2023/03/05 16:24:10;;;;;;;7.60;5.28;;;;;;;;;;10407509;28;20026;-62
2023/03/05 16:29:11;;;;;;;7.18;5.70;;;;;;;;;;10408644;28;20080;-62
2023/03/05 16:34:13;;;;;;;6.60;5.68;;;;;;;;;;10408636;28;20064;-62
2023/03/05 16:39:13;;;;;;;8.55;5.72;;;;;;;;;;10408526;28;20025;-63
2023/03/05 16:44:14;;;;;;;7.15;5.82;;;;;;;;;;10408825;28;20025;-62
2023/03/05 16:49:15;;;;;;;6.57;5.40;;;;;;;;;;10416218;28;20060;-63
2023/03/05 16:54:15;;;;;;;7.40;6.00;;;;;;;;;;10417033;28;20037;-62
2023/03/05 16:59:16;;;;;;;6.97;5.57;;;;;;;;;;10415176;28;20022;-63
2023/03/05 17:04:17;;;;;;;7.13;5.97;;;;;;;;;;10416686;28;20026;-62
2023/03/05 17:09:22;;;;;;;7.60;5.72;;;;;;;;;;10415905;28;20029;-63
2023/03/05 17:14:23;;;;;;;8.30;5.97;;;;;;;;;;10415766;28;20500;-63
2023/03/05 17:19:23;;;;;;;7.05;5.70;;;;;;;;;;10415621;28;20056;-63
2023/03/05 17:24:24;;;;;;;7.63;5.95;;;;;;;;;;10415454;28;20044;-63
2023/03/05 17:29:25;;;;;;;7.75;5.60;;;;;;;;;;10414993;28;20428;-63
2023/03/05 17:34:26;;;;;;;7.38;5.82;;;;;;;;;;10415543;28;20072;-63
2023/03/05 17:39:26;;;;;;;8.65;6.75;;;;;;;;;;10415623;28;20037;-62
2023/03/05 17:44:27;;;;;;;8.40;6.43;;;;;;;;;;10414717;28;20026;-63
2023/03/05 17:49:27;;;;;;;9.95;6.35;;;;;;;;;;10414466;28;20029;-63
2023/03/05 17:54:28;;;;;;;7.28;6.38;;;;;;;;;;10414671;28;20036;-63
2023/03/05 17:59:29;;;;;;;6.90;5.97;;;;;;;;;;10413520;28;20032;-63
2023/03/05 18:04:29;;;;;;;6.97;6.13;;;;;;;;;;10413934;28;20543;-62
2023/03/05 18:09:30;;;;;;;6.97;5.97;;;;;;;;;;10412397;28;20485;-62
2023/03/05 18:14:30;;;;;;;8.05;6.07;;;;;;;;;;10414086;28;20480;-62
2023/03/05 18:19:31;;;;;;;8.32;6.05;;;;;;;;;;10413939;28;20083;-62
2023/03/05 18:24:32;;;;;;;7.47;5.60;;;;;;;;;;10413186;28;20485;-62
2023/03/05 18:29:33;;;;;;;6.63;5.30;;;;;;;;;;10412564;28;20050;-63
2023/03/05 18:34:33;;;;;;;6.53;5.53;;;;;;;;;;10412830;28;20041;-62
2023/03/05 18:39:34;;;;;;;9.93;5.78;;;;;;;;;;10412492;28;20037;-62
2023/03/05 18:44:35;;;;;;;7.70;5.65;;;;;;;;;;10412850;28;20026;-62
2023/03/05 18:49:35;;;;;;;7.68;5.15;;;;;;;;;;10412233;28;20442;-62
2023/03/05 18:54:36;;;;;;;6.05;4.80;;;;;;;;;;10411927;28;20413;-62
2023/03/05 18:59:36;;;;;;;6.53;4.88;;;;;;;;;;10411724;28;20033;-62
2023/03/05 19:04:37;;;;;;;5.75;4.88;;;;;;;;;;10412000;28;20021;-62
2023/03/05 19:09:53;;;;;;;7.40;5.13;;;;;;;;;;10410218;28;20223;-63
2023/03/05 19:14:54;;;;;;;6.88;5.03;;;;;;;;;;10411574;28;20223;-62
2023/03/05 19:19:57;;;;;;;5.70;4.70;;;;;;;;;;10410938;28;20473;-62
2023/03/05 19:24:59;;;;;;;6.15;5.30;;;;;;;;;;10410950;28;20048;-63
2023/03/05 19:29:59;;;;;;;6.32;5.20;;;;;;;;;;10410062;28;20493;-61
2023/03/05 19:35:00;;;;;;;5.82;5.22;;;;;;;;;;10410507;28;20113;-61
2023/03/05 19:40:03;;;;;;;8.95;5.43;;;;;;;;;;10410037;28;20029;-62
2023/03/05 19:45:06;;;;;;;10.82;6.10;;;;;;;;;;10397432;22;20049;-58
2023/03/05 19:50:07;;;;;;;13.27;6.10;;;;;;;;;;10368856;28;20029;-58
2023/03/05 19:55:09;;;;;;;10.25;6.53;;;;;;;;;;10368394;28;20428;-54
2023/03/05 20:00:11;;;;;;;9.90;6.28;;;;;;;;;;10368836;28;20101;-57
2023/03/05 20:05:11;;;;;;;8.48;7.03;;;;;;;;;;10367459;28;20026;-58
2023/03/05 20:10:12;;;;;;;8.77;6.53;;;;;;;;;;10368492;28;20029;-59
2023/03/05 20:15:13;;;;;;;9.02;6.35;;;;;;;;;;10367925;28;20034;-59
2023/03/05 20:20:16;;;;;;;8.80;6.57;;;;;;;;;;10367676;28;20034;-58
2023/03/05 20:25:20;;;;;;;8.20;6.80;;;;;;;;;;10367330;28;20029;-59
2023/03/05 20:30:20;;;;;;;23.05;7.45;;;;;;;;;;10368016;28;20040;-60
2023/03/05 20:35:22;;;;;;;26.35;8.10;;;;;;;;;;10368237;28;20049;-61
2023/03/05 20:40:23;;;;;;;24.70;8.77;;;;;;;;;;10367536;28;20026;-58
2023/03/05 20:45:23;;;;;;;18.20;7.20;;;;;;;;;;10364548;28;20050;-57
2023/03/05 20:50:26;;;;;;;15.13;6.30;;;;;;;;;;10366739;28;20046;-59
2023/03/05 20:55:27;;;;;;;25.88;7.72;;;;;;;;;;10367397;28;20022;-58
2023/03/05 21:00:28;;;;;;;31.98;9.38;;;;;;;;;;10367406;28;20030;-59
2023/03/05 21:05:30;;;;;;;34.08;8.82;;;;;;;;;;10367097;28;20120;-59
2023/03/05 21:10:31;;;;;;;19.77;7.97;;;;;;;;;;10366890;28;20073;-56
2023/03/05 21:15:31;;;;;;;21.35;7.60;;;;;;;;;;10366537;28;20046;-56
2023/03/05 21:20:32;;;;;;;25.55;7.57;;;;;;;;;;10366423;28;20458;-57
2023/03/05 21:25:33;;;;;;;18.85;7.03;;;;;;;;;;10364436;28;20029;-57
2023/03/05 21:30:42;;;;;;;12.00;7.32;;;;;;;;;;10366620;28;20030;-57
2023/03/05 21:35:43;;;;;;;;;;;;;;;;;;10372703;28;20026;-58
2023/03/05 21:40:47;;;;;;;60.10;9.25;;;;;;;;;;10373496;28;19920;-59
2023/03/05 21:45:51;;;;;;;37.55;9.65;;;;;;;;;;10373221;28;20129;-59
2023/03/05 21:50:51;;;;;;;22.92;9.07;;;;;;;;;;10372643;28;20052;-58
2023/03/05 21:56:23;;;;;;;21.55;8.05;;;;;;;;;;10373288;28;20022;-57
2023/03/05 22:01:24;;;;;;;20.25;8.82;;;;;;;;;;10372545;28;20033;-59
2023/03/05 22:06:25;;;;;;;15.68;8.45;;;;;;;;;;10373200;28;20022;-59
2023/03/05 22:11:25;;;;;;;14.88;8.23;;;;;;;;;;10372682;28;20030;-59
2023/03/05 22:16:27;;;;;;;18.60;9.18;;;;;;;;;;10372979;28;20473;-60
2023/03/05 22:21:29;;;;;;;21.45;9.07;;;;;;;;;;10371746;28;20375;-55
2023/03/05 22:26:37;;;;;;;15.63;7.50;;;;;;;;;;10371877;28;20117;-59
2023/03/05 22:31:39;;;;;;;14.63;7.38;;;;;;;;;;10371693;28;20374;-59
2023/03/05 22:36:40;;;;;;;17.95;7.60;;;;;;;;;;10372351;28;20032;-55
2023/03/05 22:41:41;;;;;;;20.15;8.02;;;;;;;;;;10372628;28;20030;-54
2023/03/05 22:46:43;;;;;;;14.68;8.57;;;;;;;;;;10372085;28;20042;-52
2023/03/05 22:51:43;;;;;;;15.15;7.63;;;;;;;;;;10371045;28;20490;-57
2023/03/05 22:56:44;;;;;;;14.35;8.43;;;;;;;;;;10371485;28;20026;-55
2023/03/05 23:01:45;;;;;;;14.15;8.07;;;;;;;;;;10371616;28;20033;-57
2023/03/05 23:06:47;;;;;;;11.73;8.32;;;;;;;;;;10370647;28;20025;-59
2023/03/05 23:11:47;;;;;;;27.60;8.32;;;;;;;;;;10370350;28;20032;-59
2023/03/05 23:16:48;;;;;;;15.20;8.45;;;;;;;;;;10370892;28;20044;-58
2023/03/05 23:21:49;;;;;;;16.48;8.10;;;;;;;;;;10370558;28;20030;-59
2023/03/05 23:26:49;;;;;;;13.73;7.82;;;;;;;;;;10369931;28;20363;-57
2023/03/05 23:31:53;;;;;;;13.13;7.55;;;;;;;;;;10369878;28;20083;-58
2023/03/05 23:36:54;;;;;;;13.55;6.93;;;;;;;;;;10369462;28;20025;-56
2023/03/05 23:41:54;;;;;;;18.70;7.72;;;;;;;;;;10369141;28;20034;-58
2023/03/05 23:46:55;;;;;;;15.68;7.68;;;;;;;;;;10369150;28;20046;-58
2023/03/05 23:51:56;;;;;;;11.55;6.38;;;;;;;;;;10369471;28;20033;-57
2023/03/05 23:56:56;;;;;;;12.63;6.95;;;;;;;;;;10368968;28;20469;-56
